Time;durP1;ratioP1;P1;durP2;ratioP2;P2;SDS_P1;SDS_P2;PMS_P1;PMS_P2;Temp;Humidity;BMP_temperature;BMP_pressure;BME280_temperature;BME280_humidity;BME280_pressure;Samples;Min_cycle;Max_cycle;Signal;HPM_P1;HPM_P2
2021/12/04 00:00:10;;;;;;;129.10;81.43;;;;;;;8.71;94.17;99389.56;5105005;28;20042;-20
2021/12/04 00:02:36;;;;;;;128.77;80.10;;;;;;;8.84;93.11;99387.53;5104797;28;20046;-20
2021/12/04 00:05:04;;;;;;;136.65;82.22;;;;;;;9.07;91.92;99391.31;5104803;28;20024;-20
2021/12/04 00:07:32;;;;;;;132.80;79.13;;;;;;;8.99;91.32;99391.63;5104537;28;20038;-21
2021/12/04 00:10:01;;;;;;;118.88;74.68;;;;;;;8.83;91.39;99385.09;5104666;28;20035;-20
2021/12/04 00:12:27;;;;;;;124.07;76.00;;;;;;;8.81;91.56;99384.53;5092232;28;20029;-20
2021/12/04 00:14:52;;;;;;;124.28;77.32;;;;;;;8.84;91.22;99387.53;5092740;28;20055;-20
2021/12/04 00:17:18;;;;;;;129.57;79.25;;;;;;;9.03;90.17;99392.81;5083805;28;20032;-20
2021/12/04 00:19:43;;;;;;;121.75;75.60;;;;;;;8.78;90.93;99399.06;5083970;28;20101;-21
2021/12/04 00:22:09;;;;;;;116.63;74.60;;;;;;;8.91;90.39;99410.56;5083712;28;20039;-21
2021/12/04 00:24:35;;;;;;;115.07;74.88;;;;;;;8.95;89.68;99391.28;5071285;28;20494;-20
2021/12/04 00:27:00;;;;;;;121.55;75.68;;;;;;;8.95;90.57;99398.44;5070351;28;20032;-21
2021/12/04 00:29:26;;;;;;;110.75;71.50;;;;;;;9.19;89.10;99400.19;5070425;28;20541;-20
2021/12/04 00:31:58;;;;;;;112.28;69.03;;;;;;;8.98;89.22;99392.69;5070481;28;20029;-20
2021/12/04 00:34:25;;;;;;;107.72;70.90;;;;;;;9.22;88.59;99404.22;5070318;28;20037;-20
2021/12/04 00:50:18;;;;;;;103.40;64.63;;;;;;;9.18;87.97;99403.88;5070114;28;20565;-20
2021/12/04 00:52:43;;;;;;;87.97;59.15;;;;;;;9.01;87.89;99414.31;5069895;28;20037;-20
2021/12/04 00:55:09;;;;;;;87.05;57.25;;;;;;;9.05;87.74;99409.34;5069791;28;20407;-20
2021/12/04 00:57:34;;;;;;;94.10;58.53;;;;;;;9.24;87.16;99391.50;5069617;28;20028;-20
2021/12/04 01:00:00;;;;;;;91.00;59.63;;;;;;;9.27;86.95;99411.53;5069780;28;20035;-21
2021/12/04 01:02:25;;;;;;;94.53;58.33;;;;;;;9.00;88.09;99401.25;5068558;28;20535;-22
2021/12/04 01:04:51;;;;;;;85.95;56.60;;;;;;;8.82;88.76;99405.53;5069943;28;20032;-27
2021/12/04 01:07:17;;;;;;;79.72;53.28;;;;;;;8.80;89.34;99396.97;5068037;28;20025;-20
2021/12/04 01:09:43;;;;;;;85.45;51.55;;;;;;;8.60;89.86;99385.78;5069564;28;20033;-21
2021/12/04 01:12:09;;;;;;;81.63;50.28;;;;;;;8.61;89.74;99390.06;5084390;28;20115;-21
2021/12/04 01:14:35;;;;;;;71.38;48.78;;;;;;;8.96;88.62;99402.72;5085410;28;20557;-21
2021/12/04 01:17:00;;;;;;;73.63;49.30;;;;;;;9.18;87.71;99403.06;5069700;28;20727;-20
2021/12/04 01:19:26;;;;;;;74.25;47.88;;;;;;;9.17;86.95;99396.91;5069266;28;20040;-20
2021/12/04 01:21:52;;;;;;;68.82;44.15;;;;;;;8.93;87.53;99380.06;5068277;28;20396;-20
2021/12/04 01:24:18;;;;;;;67.05;42.50;;;;;;;8.69;89.01;99388.97;5069481;28;20028;-20
2021/12/04 01:26:43;;;;;;;64.47;42.65;;;;;;;8.90;88.99;99395.66;5069239;28;20036;-20
2021/12/04 01:29:09;;;;;;;57.13;39.33;;;;;;;8.94;88.71;99379.00;5069569;28;20029;-21
2021/12/04 01:31:34;;;;;;;57.17;38.03;;;;;;;8.93;88.90;99384.56;5068967;28;20034;-20
2021/12/04 01:34:00;;;;;;;55.95;37.65;;;;;;;8.80;89.13;99385.53;5069283;28;20042;-20
2021/12/04 01:36:25;;;;;;;50.75;34.38;;;;;;;8.60;88.64;99353.88;5068477;28;20483;-21
2021/12/04 01:38:51;;;;;;;51.10;33.85;;;;;;;8.67;89.09;99365.25;5069608;28;20032;-20
2021/12/04 01:41:17;;;;;;;53.28;33.63;;;;;;;8.68;88.84;99366.88;5069015;28;20028;-21
2021/12/04 01:43:42;;;;;;;48.15;31.95;;;;;;;8.37;90.51;99359.84;5069182;28;20036;-20
2021/12/04 01:46:08;;;;;;;50.20;32.03;;;;;;;8.37;89.95;99341.25;5068855;28;20476;-20
2021/12/04 01:48:33;;;;;;;49.80;33.08;;;;;;;8.74;89.22;99357.19;5067580;28;20503;-20
2021/12/04 01:50:59;;;;;;;54.13;32.58;;;;;;;8.71;88.58;99365.63;5067674;28;20036;-22
2021/12/04 01:53:24;;;;;;;50.65;33.03;;;;;;;8.79;88.35;99366.13;5068648;28;20058;-20
2021/12/04 01:55:51;;;;;;;51.90;32.25;;;;;;;8.71;88.42;99361.13;5069089;28;20056;-20
2021/12/04 01:58:16;;;;;;;52.75;33.03;;;;;;;8.95;87.49;99379.81;5067412;28;20032;-20
2021/12/04 02:00:42;;;;;;;46.35;31.15;;;;;;;8.98;87.64;99368.75;5067420;28;20574;-21
2021/12/04 02:03:08;;;;;;;46.50;30.10;;;;;;;8.83;87.69;99369.16;5068519;28;20521;-20
2021/12/04 02:05:38;;;;;;;47.63;30.58;;;;;;;9.01;87.66;99365.63;5068468;28;20421;-20
2021/12/04 02:08:04;;;;;;;47.50;30.77;;;;;;;9.16;86.96;99366.03;5068574;28;20039;-20
2021/12/04 02:10:30;;;;;;;45.53;30.92;;;;;;;9.05;86.80;99361.47;5084041;28;20035;-20
2021/12/04 02:12:55;;;;;;;50.90;30.20;;;;;;;9.14;86.13;99365.44;5068295;28;20044;-20
2021/12/04 02:15:21;;;;;;;43.85;29.45;;;;;;;9.10;86.25;99366.94;5066819;28;20052;-20
2021/12/04 02:17:48;;;;;;;44.88;29.30;;;;;;;8.98;86.65;99374.06;5068323;28;20036;-20
2021/12/04 02:20:19;;;;;;;43.85;29.02;;;;;;;9.03;86.45;99358.22;5067068;28;20522;-21
2021/12/04 02:22:45;;;;;;;43.03;28.20;;;;;;;9.25;84.92;99356.72;5068306;28;20043;-20
2021/12/04 02:25:11;;;;;;;43.05;28.58;;;;;;;8.83;85.92;99332.72;5068226;28;20024;-20
2021/12/04 02:27:37;;;;;;;42.70;29.52;;;;;;;9.24;85.24;99355.06;5068150;28;20404;-21
2021/12/04 02:30:11;;;;;;;44.35;27.05;;;;;;;9.41;84.15;99351.75;5068415;28;20030;-20
2021/12/04 02:32:36;;;;;;;38.67;26.05;;;;;;;9.44;83.86;99343.31;5068391;28;20373;-21
2021/12/04 02:35:02;;;;;;;40.75;24.88;;;;;;;9.36;84.05;99330.34;5068333;28;20032;-20
2021/12/04 02:37:27;;;;;;;43.05;27.20;;;;;;;9.57;83.02;99336.97;5067906;28;20458;-20
2021/12/04 02:39:59;;;;;;;38.90;26.67;;;;;;;9.47;84.78;99334.88;5067971;28;20037;-20
2021/12/04 02:42:28;;;;;;;39.17;26.58;;;;;;;9.42;84.93;99324.13;5068782;28;20036;-20
2021/12/04 02:44:53;;;;;;;37.08;26.25;;;;;;;9.11;86.01;99315.34;5068004;28;20044;-22
2021/12/04 02:47:19;;;;;;;40.65;28.25;;;;;;;9.50;84.93;99325.59;5067834;28;20056;-20
2021/12/04 02:49:44;;;;;;;38.33;26.75;;;;;;;9.27;85.70;99326.38;5068159;28;20050;-21
2021/12/04 02:52:10;;;;;;;42.67;27.13;;;;;;;9.50;84.08;99310.47;5068036;28;20032;-20
2021/12/04 02:54:36;;;;;;;43.42;25.83;;;;;;;9.77;82.04;99316.16;5066743;28;20115;-20
2021/12/04 02:57:03;;;;;;;39.60;28.33;;;;;;;9.65;83.26;99340.09;5068042;28;20036;-20
2021/12/04 02:59:28;;;;;;;38.88;27.27;;;;;;;9.56;84.42;99340.66;5067648;28;20027;-20
2021/12/04 03:01:55;;;;;;;39.08;26.90;;;;;;;9.27;85.75;99347.66;5068040;28;20406;-20
2021/12/04 03:04:23;;;;;;;37.45;27.10;;;;;;;8.98;88.04;99334.19;5066769;28;20036;-20
2021/12/04 03:06:49;;;;;;;39.08;26.00;;;;;;;8.91;88.30;99322.81;5067660;28;20567;-20
2021/12/04 03:09:14;;;;;;;37.10;27.20;;;;;;;8.94;88.09;99340.97;5067721;28;20047;-21
2021/12/04 03:11:40;;;;;;;37.83;26.77;;;;;;;9.05;87.57;99324.25;5065905;28;20415;-20
2021/12/04 03:14:06;;;;;;;36.17;27.30;;;;;;;9.30;85.66;99300.16;5066345;28;20109;-20
2021/12/04 03:16:32;;;;;;;38.85;28.65;;;;;;;9.15;86.64;99295.22;5067786;28;20488;-20
2021/12/04 03:18:57;;;;;;;42.63;29.50;;;;;;;9.05;87.25;99317.09;5067733;28;20110;-20
2021/12/04 03:21:23;;;;;;;40.42;28.33;;;;;;;9.17;86.76;99351.69;5066633;28;20024;-20
2021/12/04 03:24:01;;;;;;;41.10;29.17;;;;;;;9.17;87.15;99349.03;5067849;28;20033;-20
2021/12/04 03:26:26;;;;;;;41.28;27.52;;;;;;;9.43;85.19;99374.44;5066411;28;20068;-20
2021/12/04 03:28:53;;;;;;;42.70;27.92;;;;;;;9.39;85.67;99381.25;5067781;28;20515;-20
2021/12/04 03:42:09;;;;;;;38.50;26.83;;;;;;;9.62;83.80;99387.66;5067915;28;20178;-20
2021/12/04 03:44:35;;;;;;;38.33;25.52;;;;;;;9.82;83.01;99377.50;5067690;28;20091;-21
2021/12/04 03:47:00;;;;;;;41.35;26.58;;;;;;;9.84;82.49;99369.28;5067800;28;20032;-21
2021/12/04 03:49:26;;;;;;;37.80;25.55;;;;;;;9.73;82.59;99370.09;5066060;28;20050;-20
2021/12/04 03:51:51;;;;;;;35.70;23.80;;;;;;;9.60;83.29;99365.78;5067422;28;20545;-20
2021/12/04 03:54:17;;;;;;;35.50;23.90;;;;;;;9.33;84.53;99370.72;5067335;28;20029;-20
2021/12/04 03:56:43;;;;;;;33.20;23.98;;;;;;;9.20;85.50;99377.84;5067431;28;20028;-20
2021/12/04 03:59:08;;;;;;;33.90;22.70;;;;;;;9.09;86.15;99383.94;5069467;28;20048;-20
2021/12/04 04:01:34;;;;;;;39.05;24.35;;;;;;;9.07;87.04;99375.34;5071098;28;20101;-20
2021/12/04 04:03:59;;;;;;;38.78;25.02;;;;;;;8.98;87.03;99363.44;5069719;28;20119;-21
2021/12/04 04:06:25;;;;;;;34.95;24.98;;;;;;;9.28;86.07;99371.41;5071219;28;20035;-20
2021/12/04 04:08:50;;;;;;;37.28;24.20;;;;;;;9.19;86.66;99378.91;5070896;28;20044;-20
2021/12/04 04:11:16;;;;;;;35.40;22.95;;;;;;;8.98;87.45;99388.16;5070920;28;20074;-21
2021/12/04 04:13:44;;;;;;;35.30;23.80;;;;;;;9.15;87.83;99392.84;5072120;28;20040;-21
2021/12/04 04:16:10;;;;;;;36.38;24.33;;;;;;;9.50;85.74;99387.66;5091197;28;20027;-20
2021/12/04 04:18:35;;;;;;;38.03;24.60;;;;;;;9.71;83.79;99390.81;5090992;28;20067;-20
2021/12/04 04:21:00;;;;;;;34.20;23.88;;;;;;;9.62;83.86;99399.13;5090881;28;20407;-21
2021/12/04 04:23:26;;;;;;;35.42;24.80;;;;;;;9.39;84.07;99383.09;5090755;28;20036;-21
2021/12/04 04:25:51;;;;;;;59.53;37.58;;;;;;;9.40;84.79;99376.75;5090773;28;20035;-20
2021/12/04 04:28:17;;;;;;;54.40;34.75;;;;;;;9.52;84.28;99380.25;5090917;28;20032;-21
2021/12/04 04:30:43;;;;;;;73.97;47.10;;;;;;;9.73;83.08;99384.22;5072657;28;20024;-20
2021/12/04 04:33:11;;;;;;;52.20;36.13;;;;;;;9.55;83.89;99366.47;5089918;28;20039;-21
2021/12/04 04:35:37;;;;;;;35.80;26.17;;;;;;;9.79;82.72;99385.16;5090710;28;20050;-20
2021/12/04 05:13:22;;;;;;;21.55;15.48;;;;;;;9.85;81.33;99400.22;5074509;28;20041;-20
2021/12/04 05:20:55;;;;;;;20.88;13.80;;;;;;;9.62;81.03;99398.31;5090196;28;19958;-20
2021/12/04 05:23:22;;;;;;;20.23;14.45;;;;;;;9.61;81.02;99383.38;5089772;28;20471;-21
2021/12/04 05:25:47;;;;;;;19.92;12.70;;;;;;;9.54;80.74;99391.47;5089764;28;20024;-20
2021/12/04 05:28:13;;;;;;;23.45;12.75;;;;;;;9.52;80.62;99396.22;5089771;28;20035;-20
2021/12/04 05:30:38;;;;;;;18.17;11.57;;;;;;;9.82;79.92;99387.34;5089572;28;20035;-21
2021/12/04 05:33:04;;;;;;;18.10;12.32;;;;;;;9.70;81.10;99407.81;5089530;28;20024;-20
2021/12/04 05:35:30;;;;;;;17.98;11.85;;;;;;;9.62;81.38;99406.28;5089127;28;20024;-20
2021/12/04 05:37:55;;;;;;;16.27;10.52;;;;;;;9.90;79.31;99405.63;5089688;28;20089;-20
2021/12/04 05:40:21;;;;;;;13.68;9.10;;;;;;;9.35;80.06;99392.56;5089677;28;20069;-21
2021/12/04 05:42:46;;;;;;;14.68;7.68;;;;;;;9.21;79.00;99403.44;5089773;28;20063;-21
2021/12/04 05:45:18;;;;;;;13.45;9.75;;;;;;;8.58;82.91;99393.16;5071193;28;20027;-20
2021/12/04 05:47:54;;;;;;;15.45;10.60;;;;;;;8.32;84.30;99397.72;5089296;28;20483;-21
2021/12/04 05:50:37;;;;;;;33.22;23.58;;;;;;;8.31;83.83;99392.63;5089332;28;20372;-20
2021/12/04 05:53:26;;;;;;;42.63;30.67;;;;;;;8.21;85.04;99393.13;5089136;28;20528;-20
2021/12/04 05:55:56;;;;;;;27.85;21.10;;;;;;;8.26;85.05;99401.25;5088633;28;20532;-20
2021/12/04 05:58:29;;;;;;;22.63;17.73;;;;;;;8.30;84.34;99421.03;5089143;28;20034;-20
2021/12/04 06:00:55;;;;;;;29.90;18.73;;;;;;;8.35;83.59;99404.44;5089231;28;20031;-20
2021/12/04 06:03:22;;;;;;;21.88;13.70;;;;;;;8.55;83.12;99412.22;5088910;28;20066;-21
2021/12/04 06:05:47;;;;;;;23.63;14.98;;;;;;;8.91;81.93;99397.25;5089148;28;20491;-20
2021/12/04 06:08:13;;;;;;;24.63;13.75;;;;;;;9.15;81.42;99419.47;5070973;28;20024;-20
2021/12/04 06:10:39;;;;;;;19.73;13.32;;;;;;;9.06;81.68;99416.31;5088987;28;20107;-20
2021/12/04 06:13:04;;;;;;;20.75;14.20;;;;;;;9.00;81.30;99428.66;5089068;28;20032;-20
2021/12/04 06:15:30;;;;;;;30.30;20.90;;;;;;;8.85;82.20;99429.03;5088592;28;20059;-20
2021/12/04 06:17:55;;;;;;;18.92;12.35;;;;;;;8.52;82.37;99415.31;5088597;28;20081;-20
2021/12/04 06:23:05;;;;;;;11.80;8.30;;;;;;;8.69;80.96;99419.00;5088731;28;20047;-20
2021/12/04 06:25:31;;;;;;;11.88;7.40;;;;;;;8.67;81.55;99423.72;5088382;28;20028;-20
2021/12/04 06:27:56;;;;;;;15.48;8.80;;;;;;;8.76;81.82;99433.03;5088424;28;20035;-20
2021/12/04 06:30:22;;;;;;;13.00;8.10;;;;;;;8.82;80.53;99415.38;5088773;28;20544;-20
2021/12/04 06:32:49;;;;;;;10.80;7.10;;;;;;;9.11;79.83;99429.72;5088291;28;20024;-20
2021/12/04 06:35:16;;;;;;;12.85;7.95;;;;;;;9.02;81.19;99436.41;5088164;28;20038;-20
2021/12/04 06:37:41;;;;;;;11.45;7.82;;;;;;;9.12;79.37;99439.34;5070471;28;20039;-20
2021/12/04 06:40:08;;;;;;;12.05;8.50;;;;;;;8.99;79.99;99448.31;5088153;28;20039;-21
2021/12/04 06:42:33;;;;;;;13.80;9.57;;;;;;;8.83;81.08;99441.75;5088337;28;20028;-20
2021/12/04 06:44:59;;;;;;;12.80;9.43;;;;;;;8.80;81.46;99454.66;5088674;28;20047;-20
2021/12/04 06:47:24;;;;;;;12.20;7.50;;;;;;;8.68;81.73;99454.59;5088209;28;20035;-21
2021/12/04 06:49:53;;;;;;;11.27;7.78;;;;;;;8.72;82.08;99458.41;5070008;28;20481;-20
2021/12/04 06:52:22;;;;;;;11.57;7.43;;;;;;;8.88;81.56;99467.66;5070610;28;20028;-20
2021/12/04 06:54:54;;;;;;;12.68;8.07;;;;;;;8.91;81.28;99471.72;5087912;28;20119;-20
2021/12/04 06:57:20;;;;;;;15.20;8.73;;;;;;;8.82;81.20;99448.09;5070692;28;20525;-20
2021/12/04 06:59:47;;;;;;;13.05;7.93;;;;;;;8.67;81.53;99471.59;5088107;28;20071;-20
2021/12/04 07:02:13;;;;;;;14.15;8.98;;;;;;;8.49;82.58;99468.91;5087799;28;20020;-20
2021/12/04 07:04:39;;;;;;;14.27;9.13;;;;;;;8.33;83.08;99481.69;5087839;28;20486;-20
2021/12/04 07:07:05;;;;;;;12.07;8.02;;;;;;;7.80;84.40;99495.38;5087897;28;20494;-21
2021/12/04 07:09:31;;;;;;;13.38;8.18;;;;;;;7.74;85.49;99498.88;5087789;28;20032;-21
2021/12/04 07:11:59;;;;;;;11.43;7.85;;;;;;;7.40;85.55;99504.41;5087980;28;20545;-20
2021/12/04 07:14:25;;;;;;;15.48;8.35;;;;;;;7.48;85.99;99500.69;5087744;28;20123;-21
2021/12/04 07:16:51;;;;;;;13.48;8.40;;;;;;;7.40;86.21;99516.84;5088102;28;20392;-21
2021/12/04 07:19:16;;;;;;;12.43;7.93;;;;;;;7.30;86.19;99503.22;5069749;28;20028;-21
2021/12/04 07:21:43;;;;;;;13.13;7.45;;;;;;;7.26;86.40;99524.06;5069829;28;20031;-20
2021/12/04 07:24:10;;;;;;;12.05;7.95;;;;;;;7.39;86.55;99533.78;5088011;28;20110;-20
2021/12/04 07:26:36;;;;;;;13.77;8.65;;;;;;;7.22;86.15;99528.16;5087946;28;20028;-21
2021/12/04 07:29:01;;;;;;;13.90;8.02;;;;;;;7.20;86.41;99540.81;5069807;28;20164;-20
2021/12/04 07:31:29;;;;;;;14.27;9.80;;;;;;;7.35;86.80;99538.69;5069409;28;20040;-20
2021/12/04 07:33:54;;;;;;;15.48;9.18;;;;;;;7.51;85.85;99534.75;5089538;28;20028;-20
2021/12/04 07:36:21;;;;;;;12.43;7.15;;;;;;;7.18;86.41;99532.25;5091960;28;20097;-20
2021/12/04 07:38:47;;;;;;;16.63;8.65;;;;;;;7.44;86.54;99552.53;5091860;28;20028;-21
2021/12/04 07:41:12;;;;;;;13.48;7.70;;;;;;;7.03;88.27;99535.16;5091917;28;20039;-20
2021/12/04 07:43:37;;;;;;;13.55;7.60;;;;;;;6.88;89.65;99558.41;5091656;28;20031;-20
2021/12/04 07:46:03;;;;;;;17.80;11.23;;;;;;;6.81;91.59;99567.19;5091508;28;20104;-20
2021/12/04 07:48:28;;;;;;;15.50;9.30;;;;;;;6.71;92.56;99564.16;5091669;28;20031;-20
2021/12/04 07:50:55;;;;;;;15.50;9.00;;;;;;;6.88;92.13;99575.13;5091562;28;20031;-21
2021/12/04 07:53:20;;;;;;;14.38;9.10;;;;;;;6.83;92.30;99557.22;5091404;28;20027;-20
2021/12/04 07:55:46;;;;;;;14.20;9.57;;;;;;;6.84;92.56;99558.84;5091385;28;20039;-20
2021/12/04 07:58:11;;;;;;;15.48;9.68;;;;;;;6.92;92.80;99567.59;5091468;28;20141;-21
2021/12/04 08:00:37;;;;;;;18.33;11.38;;;;;;;6.89;92.63;99565.38;5091171;28;20035;-21
2021/12/04 08:03:02;;;;;;;19.45;12.05;;;;;;;6.91;92.31;99568.63;5091392;28;20051;-20
2021/12/04 08:05:29;;;;;;;20.02;13.07;;;;;;;7.02;92.13;99575.94;5091290;28;20036;-20
2021/12/04 08:07:56;;;;;;;18.52;11.38;;;;;;;6.80;93.05;99581.50;5091447;28;20024;-20
2021/12/04 08:10:21;;;;;;;18.10;10.55;;;;;;;6.76;93.17;99572.31;5091419;28;20066;-21
2021/12/04 08:12:47;;;;;;;15.80;10.52;;;;;;;6.79;92.83;99571.88;5090991;28;20487;-20
2021/12/04 08:15:13;;;;;;;26.23;13.77;;;;;;;6.86;91.99;99552.50;5090947;28;20059;-21
2021/12/04 08:17:40;;;;;;;25.95;14.18;;;;;;;6.97;92.27;99573.09;5090889;28;20028;-21
2021/12/04 08:20:06;;;;;;;25.42;15.57;;;;;;;7.06;92.13;99566.53;5090825;28;20028;-20
2021/12/04 08:22:33;;;;;;;32.47;18.25;;;;;;;7.33;90.34;99569.09;5091006;28;20032;-20
2021/12/04 08:24:59;;;;;;;34.07;16.67;;;;;;;7.34;90.19;99576.06;5090882;28;20036;-21
2021/12/04 08:27:24;;;;;;;23.02;12.27;;;;;;;7.42;90.30;99578.47;5090610;28;20278;-20
2021/12/04 08:29:50;;;;;;;20.48;13.00;;;;;;;7.44;89.39;99577.22;5090598;28;20036;-20
2021/12/04 08:32:15;;;;;;;29.13;16.50;;;;;;;7.37;89.61;99567.66;5090585;28;20039;-20
2021/12/04 08:34:40;;;;;;;17.10;11.10;;;;;;;7.49;89.14;99587.19;5090872;28;20036;-20
2021/12/04 08:37:06;;;;;;;49.10;31.15;;;;;;;7.28;90.07;99579.53;5090703;28;20031;-20
2021/12/04 08:39:32;;;;;;;21.20;12.50;;;;;;;7.47;89.64;99578.63;5090626;28;20114;-20
2021/12/04 08:41:58;;;;;;;26.48;13.98;;;;;;;7.48;88.61;99585.59;5090621;28;20040;-21
2021/12/04 08:44:23;;;;;;;26.80;13.90;;;;;;;7.76;88.10;99587.88;5071914;28;20031;-20
2021/12/04 08:46:49;;;;;;;23.55;13.75;;;;;;;7.67;87.36;99573.25;5090618;28;20403;-20
2021/12/04 08:49:14;;;;;;;51.50;27.33;;;;;;;7.96;86.82;99593.09;5090449;28;20407;-20
2021/12/04 08:51:41;;;;;;;15.88;10.52;;;;;;;7.81;86.30;99574.81;5090496;28;20036;-20
2021/12/04 08:54:07;;;;;;;17.85;11.57;;;;;;;7.80;87.21;99585.63;5090642;28;20053;-20
2021/12/04 08:56:33;;;;;;;15.82;9.38;;;;;;;8.13;84.64;99590.78;5090407;28;20112;-20
2021/12/04 08:58:59;;;;;;;23.35;14.40;;;;;;;8.09;85.52;99596.69;5090094;28;20523;-20
2021/12/04 09:01:29;;;;;;;26.55;16.25;;;;;;;8.04;86.20;99579.56;5090005;28;20032;-20
2021/12/04 09:04:19;;;;;;;27.10;20.10;;;;;;;8.11;86.84;99586.69;5090377;28;20035;-20
2021/12/04 09:06:45;;;;;;;22.65;16.33;;;;;;;8.33;85.93;99587.94;5089510;28;20036;-20
2021/12/04 09:09:11;;;;;;;21.48;14.68;;;;;;;8.43;83.88;99556.44;5090365;28;20512;-20
2021/12/04 09:11:48;;;;;;;19.73;13.68;;;;;;;8.60;83.47;99561.19;5089995;28;20059;-20
2021/12/04 09:14:14;;;;;;;17.75;11.93;;;;;;;8.72;83.63;99570.06;5090232;28;20063;-20
2021/12/04 09:16:40;;;;;;;15.85;9.90;;;;;;;8.33;83.89;99566.69;5090155;28;20081;-20
2021/12/04 09:19:05;;;;;;;19.98;14.02;;;;;;;8.63;83.99;99555.47;5089983;28;20036;-20
2021/12/04 09:21:31;;;;;;;25.67;15.15;;;;;;;8.65;83.62;99554.19;5089386;28;20024;-21
2021/12/04 09:24:05;;;;;;;15.73;10.07;;;;;;;7.98;87.19;99547.75;5089769;28;20035;-20
2021/12/04 09:32:34;;;;;;;;;;;;;;;8.34;86.20;99551.59;5089503;28;20031;-20
2021/12/04 10:20:13;;;;;;;;;;;;;;;10.94;75.72;99516.22;5064024;28;20101;-22
2021/12/04 10:33:48;;;;;;;19.52;13.50;;;;;;;10.94;75.56;99522.34;5088353;28;20047;-20
2021/12/04 10:36:24;;;;;;;22.17;13.30;;;;;;;11.05;74.65;99526.03;5088284;28;20464;-21
2021/12/04 10:38:49;;;;;;;21.77;12.93;;;;;;;10.54;76.64;99532.91;5087077;28;20035;-20
2021/12/04 10:41:15;;;;;;;15.82;10.68;;;;;;;10.49;77.31;99516.81;5070196;28;20406;-21
2021/12/04 10:43:41;;;;;;;22.08;13.60;;;;;;;10.88;78.85;99501.13;5088021;28;20123;-20
2021/12/04 10:46:16;;;;;;;19.73;12.18;;;;;;;11.38;77.01;99501.34;5088521;28;20047;-20
2021/12/04 10:48:49;;;;;;;17.38;10.55;;;;;;;11.89;74.20;99516.72;5088117;28;20024;-20
2021/12/04 10:51:34;;;;;;;21.90;13.95;;;;;;;12.26;75.02;99514.41;5088183;28;20035;-20
2021/12/04 10:54:16;;;;;;;36.05;24.77;;;;;;;12.61;73.99;99502.63;5072854;28;20027;-20
2021/12/04 10:59:24;;;;;;;19.25;14.50;;;;;;;12.70;69.60;99511.81;5088077;28;20471;-20
2021/12/04 11:41:27;;;;;;;14.48;7.50;;;;;;;14.07;64.59;99495.69;5087439;28;20855;-20
2021/12/04 11:43:57;;;;;;;25.65;16.73;;;;;;;14.15;64.10;99482.91;5087824;28;20047;-20
2021/12/04 11:46:29;;;;;;;9.65;5.65;;;;;;;14.25;63.47;99488.34;5070453;28;20055;-21
2021/12/04 11:48:59;;;;;;;7.43;4.45;;;;;;;14.45;63.74;99499.19;5087725;28;20029;-20
2021/12/04 11:51:26;;;;;;;13.45;10.25;;;;;;;15.06;61.05;99476.47;5069884;28;20063;-20
2021/12/04 11:53:52;;;;;;;20.40;13.95;;;;;;;15.32;59.08;99489.97;5087341;28;20459;-19
2021/12/04 11:56:27;;;;;;;11.05;6.40;;;;;;;15.09;59.64;99484.00;5087582;28;20051;-20
2021/12/04 11:58:52;;;;;;;17.17;11.88;;;;;;;14.94;60.66;99489.31;5087755;28;20032;-21
2021/12/04 12:01:27;;;;;;;9.50;6.72;;;;;;;14.77;60.57;99476.88;5087317;28;20092;-20
2021/12/04 12:03:54;;;;;;;8.05;5.35;;;;;;;14.47;60.76;99491.69;5087767;28;20491;-20
2021/12/04 12:06:40;;;;;;;9.40;6.25;;;;;;;14.86;61.03;99487.94;5087455;28;20035;-21
2021/12/04 12:09:17;;;;;;;9.50;6.85;;;;;;;14.89;61.44;99478.53;5069621;28;20024;-20
2021/12/04 12:11:50;;;;;;;10.30;7.88;;;;;;;14.86;60.97;99488.72;5087396;28;20097;-20
2021/12/04 12:14:19;;;;;;;16.20;8.98;;;;;;;15.97;57.49;99483.13;5087174;28;20063;-20
2021/12/04 12:16:52;;;;;;;10.25;7.65;;;;;;;16.23;58.10;99499.28;5087162;28;20024;-20
2021/12/04 12:19:29;;;;;;;7.40;5.40;;;;;;;16.18;56.95;99491.19;5088163;28;20040;-20
2021/12/04 12:36:17;;;;;;;9.18;6.10;;;;;;;16.79;53.15;99499.16;5090965;28;20032;-20
2021/12/04 12:39:02;;;;;;;9.98;7.60;;;;;;;15.31;56.23;99473.06;5090864;28;20040;-20
2021/12/04 12:41:47;;;;;;;10.73;8.35;;;;;;;14.65;59.50;99503.13;5090425;28;20119;-20
2021/12/04 12:44:28;;;;;;;11.18;7.85;;;;;;;13.73;63.15;99497.00;5090468;28;20031;-20
2021/12/04 12:46:54;;;;;;;9.02;7.15;;;;;;;12.92;65.88;99489.66;5090354;28;20040;-20
2021/12/04 12:49:34;;;;;;;9.32;6.65;;;;;;;12.70;65.59;99478.94;5090730;28;20036;-20
2021/12/04 12:52:14;;;;;;;10.25;6.97;;;;;;;12.24;68.84;99487.91;5090220;28;20044;-20
2021/12/04 12:55:00;;;;;;;11.80;8.30;;;;;;;11.72;71.13;99512.13;5090480;28;20020;-21
2021/12/04 12:57:29;;;;;;;9.52;6.70;;;;;;;11.31;73.33;99508.69;5090460;28;20772;-20
2021/12/04 13:14:25;;;;;;;12.30;6.75;;;;;;;10.70;75.84;99492.22;5090064;28;20116;-20
2021/12/04 13:16:57;;;;;;;20.88;10.38;;;;;;;10.95;74.87;99523.16;5089401;28;20548;-19
2021/12/04 13:19:24;;;;;;;19.30;10.15;;;;;;;10.45;78.10;99527.94;5089504;28;20036;-20
2021/12/04 13:21:51;;;;;;;22.27;12.23;;;;;;;10.27;79.42;99530.66;5089903;28;20111;-20
2021/12/04 13:24:17;;;;;;;15.52;9.52;;;;;;;10.01;80.93;99530.06;5089574;28;20542;-20
2021/12/04 13:26:45;;;;;;;12.05;7.60;;;;;;;9.95;80.79;99525.63;5089604;28;20054;-20
2021/12/04 13:29:10;;;;;;;11.90;7.90;;;;;;;9.70;81.01;99503.66;5089764;28;20047;-20
2021/12/04 13:31:39;;;;;;;13.88;8.32;;;;;;;9.65;83.24;99526.47;5089225;28;20031;-20
2021/12/04 13:34:06;;;;;;;10.80;7.25;;;;;;;9.64;83.14;99513.38;5089309;28;20415;-20
2021/12/04 13:36:32;;;;;;;14.35;8.35;;;;;;;9.79;83.58;99529.75;5089649;28;20032;-20
2021/12/04 13:38:59;;;;;;;14.45;8.23;;;;;;;9.97;81.37;99534.22;5071575;28;20058;-20
2021/12/04 13:41:25;;;;;;;13.13;8.38;;;;;;;9.84;82.05;99518.41;5089391;28;20060;-20
2021/12/04 13:43:53;;;;;;;14.75;9.23;;;;;;;10.58;79.57;99539.41;5089557;28;20066;-21
2021/12/04 13:46:19;;;;;;;9.27;6.93;;;;;;;10.22;79.53;99522.56;5089318;28;20035;-20
2021/12/04 13:48:44;;;;;;;9.25;6.13;;;;;;;10.16;79.76;99526.16;5089233;28;20089;-21
2021/12/04 13:51:10;;;;;;;14.35;6.32;;;;;;;10.20;80.15;99525.44;5089194;28;20517;-21
2021/12/04 13:53:38;;;;;;;11.93;7.43;;;;;;;10.51;79.75;99533.41;5088772;28;20034;-20
2021/12/04 13:56:03;;;;;;;12.85;8.65;;;;;;;10.66;78.58;99531.06;5089383;28;20130;-20
2021/12/04 13:58:29;;;;;;;12.90;7.47;;;;;;;10.49;78.56;99514.97;5089081;28;20551;-20
2021/12/04 14:00:54;;;;;;;12.38;7.45;;;;;;;10.34;80.01;99528.75;5089348;28;20047;-20
2021/12/04 14:03:25;;;;;;;13.10;8.75;;;;;;;10.29;80.71;99499.25;5088807;28;20020;-21
2021/12/04 14:05:50;;;;;;;9.57;6.57;;;;;;;10.54;78.37;99503.59;5089036;28;20040;-21
2021/12/04 14:08:16;;;;;;;10.98;6.85;;;;;;;10.51;78.08;99512.06;5088967;28;20034;-20
2021/12/04 14:10:42;;;;;;;10.68;7.90;;;;;;;10.18;79.40;99502.75;5088914;28;20028;-20
2021/12/04 14:13:09;;;;;;;8.98;6.78;;;;;;;10.15;80.00;99519.19;5088847;28;20032;-20
2021/12/04 14:15:35;;;;;;;10.32;6.20;;;;;;;10.68;77.78;99528.97;5088365;28;20094;-20
2021/12/04 14:18:05;;;;;;;10.20;7.35;;;;;;;11.10;75.99;99531.50;5088951;28;20024;-20
2021/12/04 14:20:31;;;;;;;10.68;7.38;;;;;;;11.35;74.81;99530.38;5088820;28;20123;-20
2021/12/04 14:22:57;;;;;;;11.07;7.00;;;;;;;11.25;74.27;99537.13;5070683;28;20559;-20
2021/12/04 14:25:23;;;;;;;10.00;7.45;;;;;;;11.18;74.47;99527.66;5088532;28;20047;-20
2021/12/04 14:27:49;;;;;;;15.60;9.40;;;;;;;10.86;75.99;99528.84;5070235;28;20406;-20
2021/12/04 14:30:17;;;;;;;12.65;8.95;;;;;;;10.59;76.95;99503.72;5088322;28;20478;-19
2021/12/04 14:32:46;;;;;;;16.10;11.25;;;;;;;10.43;77.08;99508.69;5088765;28;20540;-20
2021/12/04 14:35:16;;;;;;;18.73;12.32;;;;;;;10.48;76.29;99512.50;5088405;28;20484;-20
2021/12/04 14:37:51;;;;;;;20.33;13.07;;;;;;;10.17;78.46;99535.75;5088435;28;20463;-20
2021/12/04 14:40:25;;;;;;;22.33;14.05;;;;;;;9.91;79.93;99527.13;5088464;28;20071;-20
2021/12/04 14:42:51;;;;;;;29.52;19.30;;;;;;;9.81;80.57;99540.19;5086989;28;20068;-20
2021/12/04 14:45:21;;;;;;;48.83;33.10;;;;;;;10.03;80.02;99545.78;5088229;28;20036;-21
2021/12/04 14:47:54;;;;;;;34.33;24.35;;;;;;;10.08;79.57;99539.78;5088218;28;20423;-20